createdAt,value
2018-12-26T00:01:36.404Z,10.77
2018-12-26T00:04:41.511Z,13.60
2018-12-26T00:07:46.604Z,13.83
2018-12-26T00:10:51.707Z,14.20
2018-12-26T00:13:56.675Z,12.37
2018-12-26T00:17:01.631Z,13.00
2018-12-26T00:20:06.973Z,13.47
2018-12-26T00:23:11.944Z,11.30
2018-12-26T00:26:17.139Z,13.83
2018-12-26T00:29:22.106Z,15.27
2018-12-26T00:32:27.135Z,11.60
2018-12-26T00:35:32.099Z,13.60
2018-12-26T00:38:37.186Z,12.87
2018-12-26T00:41:42.141Z,11.37
2018-12-26T00:44:47.187Z,12.40
2018-12-26T00:47:52.215Z,11.53
2018-12-26T00:50:57.184Z,12.40
2018-12-26T00:54:02.237Z,10.80
2018-12-26T00:57:07.339Z,11.03
2018-12-26T01:00:12.458Z,11.10
2018-12-26T01:03:17.564Z,12.50
2018-12-26T01:06:22.599Z,10.93
2018-12-26T01:09:27.715Z,12.40
2018-12-26T01:12:32.814Z,11.57
2018-12-26T01:15:37.864Z,11.83
2018-12-26T01:18:42.823Z,11.20
2018-12-26T01:21:47.926Z,11.20
2018-12-26T01:24:52.975Z,11.50
2018-12-26T01:27:57.999Z,11.60
2018-12-26T01:31:02.962Z,13.00
2018-12-26T01:34:07.924Z,14.90
2018-12-26T01:37:12.955Z,11.90
2018-12-26T01:40:18.040Z,12.33
2018-12-26T01:43:23.087Z,12.47
2018-12-26T01:46:28.057Z,11.90
2018-12-26T01:49:32.994Z,11.73
2018-12-26T01:52:38.051Z,11.10
2018-12-26T01:55:43.127Z,10.00
2018-12-26T01:58:48.106Z,11.13
2018-12-26T02:01:53.139Z,12.27
2018-12-26T02:04:58.161Z,10.50
2018-12-26T02:08:03.566Z,13.20
2018-12-26T02:11:08.542Z,13.10
2018-12-26T02:14:13.562Z,13.87
2018-12-26T02:17:18.526Z,12.43
2018-12-26T02:20:24.348Z,12.90
2018-12-26T02:23:29.467Z,12.70
2018-12-26T02:26:36.565Z,13.90
2018-12-26T02:29:41.060Z,13.37
2018-12-26T02:32:46.225Z,14.53
2018-12-26T02:35:51.246Z,17.97
2018-12-26T02:38:56.218Z,14.17
2018-12-26T02:42:01.251Z,16.73
2018-12-26T02:45:06.833Z,16.83
2018-12-26T02:48:11.783Z,13.80
2018-12-26T02:51:16.832Z,13.53
2018-12-26T02:54:21.787Z,12.77
2018-12-26T02:57:26.756Z,14.47
2018-12-26T03:00:31.797Z,14.97
2018-12-26T03:03:36.746Z,13.40
2018-12-26T03:06:41.786Z,12.17
2018-12-26T03:09:46.798Z,14.07
2018-12-26T03:12:51.784Z,13.90
2018-12-26T03:15:56.873Z,14.60
2018-12-26T03:19:01.919Z,14.40
2018-12-26T03:22:07.030Z,12.97
2018-12-26T03:25:12.136Z,13.47
2018-12-26T03:28:17.088Z,12.80
2018-12-26T03:31:22.113Z,13.00
2018-12-26T03:34:27.135Z,13.07
2018-12-26T03:37:32.327Z,13.80
2018-12-26T03:40:37.375Z,13.33
2018-12-26T03:43:42.480Z,13.43
2018-12-26T03:46:47.581Z,14.17
2018-12-26T03:49:54.264Z,13.47
2018-12-26T03:52:59.770Z,12.70
2018-12-26T03:56:04.914Z,14.33
2018-12-26T03:59:09.939Z,13.63
2018-12-26T04:02:15.029Z,13.83
2018-12-26T04:05:20.153Z,13.87
2018-12-26T04:08:25.196Z,13.30
2018-12-26T04:11:30.394Z,13.27
2018-12-26T04:14:35.594Z,14.70
2018-12-26T04:17:40.535Z,16.33
2018-12-26T04:20:45.752Z,15.93
2018-12-26T04:23:50.775Z,14.90
2018-12-26T04:26:55.758Z,14.70
2018-12-26T04:30:00.923Z,14.43
2018-12-26T04:33:05.898Z,15.13
2018-12-26T04:36:10.846Z,14.40
2018-12-26T04:39:15.894Z,16.00
2018-12-26T04:42:20.939Z,16.93
2018-12-26T04:45:25.963Z,16.30
2018-12-26T04:48:30.999Z,17.07
2018-12-26T04:51:35.953Z,16.07
2018-12-26T04:54:40.923Z,16.13
2018-12-26T04:57:45.864Z,14.50
2018-12-26T05:00:50.816Z,16.30
2018-12-26T05:03:55.834Z,15.90
2018-12-26T05:07:00.807Z,15.77
2018-12-26T05:10:06.315Z,16.10
2018-12-26T05:13:11.412Z,16.33
2018-12-26T05:16:16.445Z,15.30
2018-12-26T05:19:21.471Z,18.57
2018-12-26T05:22:26.575Z,17.27
2018-12-26T05:25:31.615Z,20.70
2018-12-26T05:28:36.630Z,20.47
2018-12-26T05:31:41.688Z,17.33
2018-12-26T05:34:46.704Z,18.00
2018-12-26T05:37:51.650Z,18.73
2018-12-26T05:40:56.698Z,18.00
2018-12-26T05:44:01.660Z,17.62
2018-12-26T05:47:06.623Z,20.57
2018-12-26T05:50:11.577Z,19.50
2018-12-26T05:53:16.598Z,18.07
2018-12-26T05:56:21.646Z,21.60
2018-12-26T05:59:26.600Z,22.03
2018-12-26T06:02:31.547Z,20.60
2018-12-26T06:05:36.668Z,22.32
2018-12-26T06:08:41.620Z,19.12
2018-12-26T06:11:46.727Z,22.17
2018-12-26T06:14:51.779Z,19.35
2018-12-26T06:17:56.731Z,18.63
2018-12-26T06:21:01.702Z,17.60
2018-12-26T06:24:06.663Z,17.30
2018-12-26T06:27:11.707Z,19.35
2018-12-26T06:30:16.804Z,19.55
2018-12-26T06:33:21.766Z,17.50
2018-12-26T06:36:26.734Z,18.27
2018-12-26T06:39:31.690Z,18.77
2018-12-26T06:42:36.784Z,17.37
2018-12-26T06:45:41.734Z,18.55
2018-12-26T06:48:46.705Z,17.67
2018-12-26T06:51:51.732Z,17.85
2018-12-26T06:54:56.695Z,18.20
2018-12-26T06:58:01.723Z,17.30
2018-12-26T07:01:06.766Z,17.95
2018-12-26T07:04:11.723Z,16.77
2018-12-26T07:07:16.671Z,18.52
2018-12-26T07:10:21.708Z,18.48
2018-12-26T07:13:26.670Z,20.25
2018-12-26T07:16:31.650Z,16.85
2018-12-26T07:19:36.666Z,18.35
2018-12-26T07:22:41.706Z,16.97
2018-12-26T07:25:46.679Z,18.30
2018-12-26T07:28:51.618Z,17.02
2018-12-26T07:31:56.592Z,18.60
2018-12-26T07:35:01.558Z,18.35
2018-12-26T07:38:06.519Z,18.57
2018-12-26T07:41:11.560Z,17.07
2018-12-26T07:44:16.511Z,20.75
2018-12-26T07:47:21.483Z,18.23
2018-12-26T07:50:26.451Z,18.30
2018-12-26T07:53:31.491Z,18.05
2018-12-26T07:56:36.525Z,18.67
2018-12-26T07:59:41.562Z,19.10
2018-12-26T08:02:46.528Z,18.45
2018-12-26T08:05:51.486Z,17.87
2018-12-26T08:08:56.471Z,18.92
2018-12-26T08:12:01.451Z,17.40
2018-12-26T08:15:10.486Z,18.00
2018-12-26T08:18:13.263Z,17.00
2018-12-26T08:21:18.379Z,17.30
2018-12-26T08:24:23.410Z,19.60
2018-12-26T08:27:28.430Z,19.15
2018-12-26T08:30:33.485Z,17.45
2018-12-26T08:33:38.519Z,19.85
2018-12-26T08:36:43.633Z,19.75
2018-12-26T08:39:48.730Z,20.82
2018-12-26T08:42:53.755Z,19.83
2018-12-26T08:45:58.712Z,21.40
2018-12-26T08:49:03.735Z,20.43
2018-12-26T08:52:08.758Z,20.97
2018-12-26T08:55:13.723Z,20.40
2018-12-26T08:58:18.783Z,20.02
2018-12-26T09:01:23.738Z,21.68
2018-12-26T09:04:28.699Z,20.20
2018-12-26T09:07:33.655Z,21.33
2018-12-26T09:10:38.619Z,20.00
2018-12-26T09:13:43.714Z,19.57
2018-12-26T09:16:48.676Z,18.60
2018-12-26T09:19:53.639Z,17.50
2018-12-26T09:22:58.588Z,15.57
2018-12-26T09:26:04.793Z,15.83
2018-12-26T09:29:09.738Z,16.33
2018-12-26T09:32:14.918Z,14.60
2018-12-26T09:35:21.007Z,13.90
2018-12-26T09:38:26.095Z,16.17
2018-12-26T09:41:31.055Z,16.60
2018-12-26T09:44:36.039Z,15.83
2018-12-26T09:47:41.018Z,15.90
2018-12-26T09:50:45.963Z,16.17
2018-12-26T09:53:50.924Z,24.33
2018-12-26T09:56:55.876Z,19.10
2018-12-26T10:00:00.908Z,17.40
2018-12-26T10:03:05.957Z,16.13
2018-12-26T10:06:10.905Z,11.17
2018-12-26T10:09:15.935Z,13.03
2018-12-26T10:12:20.975Z,12.00
2018-12-26T10:15:26.077Z,11.60
2018-12-26T10:18:31.216Z,12.37
2018-12-26T10:21:36.151Z,11.83
2018-12-26T10:24:41.107Z,13.23
2018-12-26T10:27:46.078Z,10.40
2018-12-26T10:30:51.045Z,13.83
2018-12-26T10:33:56.007Z,17.37
2018-12-26T10:37:01.048Z,16.90
2018-12-26T10:40:06.350Z,18.77
2018-12-26T10:43:11.331Z,16.57
2018-12-26T10:46:16.354Z,13.63
2018-12-26T10:49:21.304Z,14.33
2018-12-26T10:52:26.318Z,13.30
2018-12-26T10:55:31.413Z,14.57
2018-12-26T10:58:36.446Z,23.50
2018-12-26T11:01:41.414Z,19.30
2018-12-26T11:04:48.577Z,19.20
2018-12-26T11:07:53.251Z,22.00
2018-12-26T11:10:58.195Z,15.87
2018-12-26T11:14:03.231Z,19.37
2018-12-26T11:17:08.672Z,22.07
2018-12-26T11:20:15.626Z,17.73
2018-12-26T11:23:20.693Z,13.20
2018-12-26T11:26:25.783Z,11.90
2018-12-26T11:29:30.760Z,13.40
2018-12-26T11:32:35.798Z,11.50
2018-12-26T11:35:40.838Z,12.87
2018-12-26T11:38:45.938Z,12.17
2018-12-26T11:41:51.075Z,10.03
2018-12-26T11:44:56.049Z,11.17
2018-12-26T11:48:01.036Z,10.87
2018-12-26T11:51:06.153Z,10.50
2018-12-26T11:54:11.095Z,11.30
2018-12-26T11:57:17.478Z,9.70
2018-12-26T12:00:22.639Z,11.80
2018-12-26T12:03:27.742Z,11.87
2018-12-26T12:06:32.862Z,13.03
2018-12-26T12:09:37.967Z,12.00
2018-12-26T12:12:43.051Z,11.00
2018-12-26T12:15:48.144Z,11.07
2018-12-26T12:18:53.243Z,13.67
2018-12-26T12:21:58.328Z,13.97
2018-12-26T12:25:03.358Z,13.77
2018-12-26T12:28:08.382Z,13.20
2018-12-26T12:31:13.417Z,13.33
2018-12-26T12:34:18.851Z,14.83
2018-12-26T12:37:23.962Z,13.57
2018-12-26T12:40:29.077Z,14.10
2018-12-26T12:43:34.126Z,14.50
2018-12-26T12:46:39.351Z,14.60
2018-12-26T12:49:44.464Z,13.50
2018-12-26T12:52:49.414Z,10.97
2018-12-26T12:55:56.130Z,19.17
2018-12-26T12:59:01.259Z,13.57
2018-12-26T13:02:06.386Z,13.13
2018-12-26T13:05:11.490Z,13.53
2018-12-26T13:08:16.486Z,12.03
2018-12-26T13:11:21.436Z,12.70
2018-12-26T13:14:26.399Z,14.10
2018-12-26T13:17:31.354Z,14.47
2018-12-26T13:20:36.367Z,12.13
2018-12-26T13:23:41.400Z,11.20
2018-12-26T13:26:46.441Z,10.70
2018-12-26T13:29:53.899Z,10.57
2018-12-26T13:32:58.111Z,10.20
2018-12-26T13:36:03.521Z,12.00
2018-12-26T13:39:08.639Z,10.00
2018-12-26T13:42:13.675Z,9.27
2018-12-26T13:45:19.471Z,12.80
2018-12-26T13:48:24.439Z,10.40
2018-12-26T13:51:29.470Z,10.23
2018-12-26T13:54:34.516Z,11.37
2018-12-26T13:57:39.470Z,10.60
2018-12-26T14:00:44.663Z,7.37
2018-12-26T14:03:49.690Z,14.40
2018-12-26T14:06:54.661Z,11.67
2018-12-26T14:09:59.680Z,16.37
2018-12-26T14:13:04.719Z,14.30
2018-12-26T14:16:09.742Z,14.57
2018-12-26T14:19:14.773Z,10.90
2018-12-26T14:22:19.736Z,12.20
2018-12-26T14:25:24.707Z,10.47
2018-12-26T14:28:29.647Z,10.80
2018-12-26T14:31:34.604Z,11.17
2018-12-26T14:34:39.546Z,10.50
2018-12-26T14:37:44.579Z,8.90
2018-12-26T14:40:49.518Z,10.80
2018-12-26T14:43:54.559Z,10.23
2018-12-26T14:46:59.501Z,8.87
2018-12-26T14:50:05.134Z,7.67
2018-12-26T14:53:10.075Z,9.80
2018-12-26T14:56:15.119Z,10.73
2018-12-26T14:59:20.122Z,10.20
2018-12-26T15:02:25.175Z,8.50
2018-12-26T15:05:30.187Z,8.67
2018-12-26T15:08:35.152Z,9.50
2018-12-26T15:11:40.166Z,10.00
2018-12-26T15:14:45.195Z,12.07
2018-12-26T15:17:50.228Z,12.63
2018-12-26T15:20:55.247Z,12.50
2018-12-26T15:24:00.345Z,13.27
2018-12-26T15:27:05.360Z,11.63
2018-12-26T15:30:10.487Z,11.27
2018-12-26T15:33:15.531Z,12.40
2018-12-26T15:36:20.489Z,11.50
2018-12-26T15:39:25.486Z,14.70
2018-12-26T15:42:30.432Z,13.03
2018-12-26T15:45:35.459Z,9.77
2018-12-26T15:48:40.547Z,9.20
2018-12-26T15:51:46.379Z,11.70
2018-12-26T15:54:52.632Z,10.63
2018-12-26T15:57:57.560Z,8.93
2018-12-26T16:01:02.739Z,10.10
2018-12-26T16:04:09.429Z,10.20
2018-12-26T16:07:14.517Z,11.20
2018-12-26T16:10:19.552Z,12.93
2018-12-26T16:13:24.571Z,13.57
2018-12-26T16:16:29.532Z,13.07
2018-12-26T16:19:34.559Z,11.83
2018-12-26T16:22:39.821Z,13.33
2018-12-26T16:25:44.888Z,11.83
2018-12-26T16:28:49.931Z,12.27
2018-12-26T16:31:55.031Z,15.97
2018-12-26T16:35:00.263Z,14.37
2018-12-26T16:38:05.383Z,15.97
2018-12-26T16:41:10.470Z,15.13
2018-12-26T16:44:15.504Z,16.60
2018-12-26T16:47:20.451Z,16.93
2018-12-26T16:50:27.103Z,16.87
2018-12-26T16:53:32.562Z,16.60
2018-12-26T16:56:37.647Z,15.80
2018-12-26T16:59:42.701Z,18.20
2018-12-26T17:02:47.674Z,16.37
2018-12-26T17:05:52.772Z,17.77
2018-12-26T17:08:57.720Z,17.03
2018-12-26T17:12:02.783Z,15.57
2018-12-26T17:15:07.896Z,17.33
2018-12-26T17:18:13.180Z,17.90
2018-12-26T17:21:18.203Z,18.53
2018-12-26T17:24:23.240Z,17.67
2018-12-26T17:27:28.210Z,20.13
2018-12-26T17:30:33.251Z,17.60
2018-12-26T17:33:38.280Z,19.87
2018-12-26T17:36:43.403Z,19.73
2018-12-26T17:39:48.444Z,20.00
2018-12-26T17:42:53.393Z,21.70
2018-12-26T17:45:58.361Z,18.60
2018-12-26T17:49:03.401Z,19.67
2018-12-26T17:52:08.358Z,21.70
2018-12-26T17:55:54.852Z,22.00
2018-12-26T17:59:17.182Z,21.87
2018-12-26T18:02:27.010Z,18.93
2018-12-26T18:05:31.968Z,17.93
2018-12-26T18:08:37.099Z,18.17
2018-12-26T18:11:42.283Z,21.80
2018-12-26T18:14:47.555Z,19.87
2018-12-26T18:17:52.660Z,21.63
2018-12-26T18:20:57.838Z,22.00
2018-12-26T18:24:02.996Z,20.83
2018-12-26T18:27:08.131Z,21.80
2018-12-26T18:30:13.391Z,21.70
2018-12-26T18:33:18.654Z,24.87
2018-12-26T18:36:23.948Z,21.83
2018-12-26T18:39:29.111Z,22.03
2018-12-26T18:42:34.432Z,19.73
2018-12-26T18:45:39.698Z,18.80
2018-12-26T18:48:44.811Z,23.90
2018-12-26T18:51:49.871Z,25.53
2018-12-26T18:54:55.012Z,22.77
2018-12-26T18:58:00.090Z,21.37
2018-12-26T19:01:05.427Z,23.70
2018-12-26T19:04:10.556Z,22.63
2018-12-26T19:07:15.687Z,25.97
2018-12-26T19:10:20.968Z,24.73
2018-12-26T19:13:26.059Z,23.90
2018-12-26T19:16:31.074Z,23.80
2018-12-26T19:19:36.420Z,26.50
2018-12-26T19:22:41.602Z,24.27
2018-12-26T19:25:46.830Z,27.50
2018-12-26T19:28:51.862Z,26.03
2018-12-26T19:31:56.895Z,23.57
2018-12-26T19:35:02.078Z,23.83
2018-12-26T19:38:07.288Z,23.77
2018-12-26T19:41:12.246Z,26.40
2018-12-26T19:44:17.304Z,25.17
2018-12-26T19:47:22.252Z,22.00
2018-12-26T19:50:27.283Z,23.10
2018-12-26T19:53:32.298Z,23.67
2018-12-26T19:56:37.258Z,22.60
2018-12-26T19:59:42.354Z,21.97
2018-12-26T20:02:47.347Z,22.27
2018-12-26T20:05:52.378Z,23.70
2018-12-26T20:08:57.331Z,22.73
2018-12-26T20:12:06.098Z,23.53
2018-12-26T20:15:11.231Z,24.43
2018-12-26T20:18:16.260Z,23.27
2018-12-26T20:21:21.215Z,23.53
2018-12-26T20:24:26.253Z,24.53
2018-12-26T20:27:31.302Z,24.07
2018-12-26T20:30:36.327Z,26.57
2018-12-26T20:33:41.363Z,25.07
2018-12-26T20:36:46.407Z,21.87
2018-12-26T20:39:51.379Z,23.70
2018-12-26T20:42:56.403Z,21.73
2018-12-26T20:46:01.515Z,22.63
2018-12-26T20:49:06.543Z,23.63
2018-12-26T20:52:11.575Z,24.60
2018-12-26T20:55:16.659Z,22.33
2018-12-26T20:58:21.696Z,21.07
2018-12-26T21:01:29.024Z,21.17
2018-12-26T21:04:34.072Z,23.90
2018-12-26T21:07:39.110Z,21.03
2018-12-26T21:10:44.138Z,22.70
2018-12-26T21:13:49.189Z,24.57
2018-12-26T21:16:55.171Z,23.43
2018-12-26T21:20:00.531Z,23.90
2018-12-26T21:23:05.895Z,22.60
2018-12-26T21:26:11.002Z,22.63
2018-12-26T21:29:16.125Z,21.50
2018-12-26T21:32:21.173Z,22.83
2018-12-26T21:35:26.203Z,24.60
2018-12-26T21:38:31.258Z,22.40
2018-12-26T21:41:36.215Z,23.00
2018-12-26T21:44:41.299Z,21.80
2018-12-26T21:47:46.364Z,20.70
2018-12-26T21:50:51.510Z,22.10
2018-12-26T21:53:56.537Z,22.00
2018-12-26T21:57:01.643Z,22.90
2018-12-26T22:00:07.815Z,29.43
2018-12-26T22:03:12.861Z,20.87
2018-12-26T22:06:17.919Z,22.40
2018-12-26T22:09:22.883Z,23.27
2018-12-26T22:12:28.194Z,22.93
2018-12-26T22:15:33.302Z,23.03
2018-12-26T22:18:38.333Z,22.93
2018-12-26T22:21:43.304Z,22.73
2018-12-26T22:24:48.272Z,21.83
2018-12-26T22:27:53.233Z,21.00
2018-12-26T22:30:58.263Z,21.00
2018-12-26T22:34:03.407Z,21.60
2018-12-26T22:37:08.442Z,23.00
2018-12-26T22:40:13.404Z,20.10
2018-12-26T22:43:18.376Z,21.60
2018-12-26T22:46:23.405Z,19.60
2018-12-26T22:49:28.383Z,23.40
2018-12-26T22:52:33.392Z,20.87
2018-12-26T22:55:38.358Z,21.47
2018-12-26T22:58:43.337Z,21.23
2018-12-26T23:01:48.391Z,22.30
2018-12-26T23:04:53.359Z,20.90
2018-12-26T23:07:58.387Z,21.30
2018-12-26T23:11:03.431Z,20.73
2018-12-26T23:14:08.392Z,22.40
2018-12-26T23:17:13.522Z,23.67
2018-12-26T23:20:18.551Z,22.77
2018-12-26T23:23:23.537Z,22.03
2018-12-26T23:26:28.571Z,22.17
2018-12-26T23:29:33.595Z,22.17
2018-12-26T23:32:38.615Z,21.80
2018-12-26T23:35:43.656Z,20.93
2018-12-26T23:38:48.598Z,18.73
2018-12-26T23:41:53.551Z,23.53
2018-12-26T23:44:58.515Z,22.23
2018-12-26T23:48:03.616Z,22.47
2018-12-26T23:51:08.570Z,22.13
2018-12-26T23:54:13.558Z,20.30
2018-12-26T23:57:18.512Z,20.80
